Página principal
METAR-TAF:

METAR-TAF

Aeroportos :

Aeroporto Internacional de Chengdu Shuangliu

Chengdu, China

latitude: 30-40N, longitude: 104-01E, altura: 508 m

Observação actual do tempo

O boletim foi feito há 50 minutos, às 15:00 UTC
Vento calmo
Temperatura 22°C
Humidade 94%
Pressão 1015 hPa
Visibilidade: 4000 m
Poucas nuvensa uma altura de 3300 ft, Cumulus congestus.
Nuvens dispersasa uma altura de 3300 ft
aguaceiros fracos de chuva, neblina

METAR: ZUUU 231500Z 00000MPS 4000 -SHRA BR FEW033TCU SCT033 22/21 Q1015 NOSIG

Hora: 23:50 (15:50 UTC)

Previsão

O boletim foi feito há 7 horas e 45 minutos, às 08:05 UTC
Previsão válida de 23 às 12 UTC a 24 às 12 UTC
Vento 6 kt de nor-noroeste
Visibilidade: 3500 m
Poucas nuvensa uma altura de 700 ft
Nuvens dispersasa uma altura de 4000 ft
aguaceiros fracos de chuva, neblina

TAF: ZUUU 230805Z 2312/2412 33003MPS 3500 -SHRA BR FEW007 SCT040 TX23/2407Z TN19/2323Z

Observações e previsões do tempo de mais de 4000 aeroportos (mensagens METAR e TAF).

As estações disponíveis são os pontos amarelos e vermelhos sobre o mapa.

Mova o rato sobre o mapa para ver o nome da estação.

Depois clique no ponto para visualizar as observações e previsões meteorológicas.

Para alterar o mapa : clique nos botões verdes com uma cruz preta para aumentar o zoom; no botão verde com uma pitada de zoom; ou nas setas verdes para mapas adjacentes.


METAR-TAF: